CheckWX is a tool to help pilots better visualize weather data.  It is not intended as a substitute for an official pre-flight weather briefing.

05:44:35 UTC

EBLG METAR
Liège Airport
Liège, Belgium
Current

25 mins ago

EBLG 200520Z 19008KT 9000 NSC 04/02 Q1021 NOSIG
Observed
Feb-20 @ 05:20 UTC
Wind
  • 190° at 8 KTS
Visibility
8,996 meters
Flight Rules
VFR
Cloud Levels
  • Clear skies
Temperature
C / 39°F
Dewpoint
C / 36°F
Humidity
87%
Altimeter
30.15" Hg
Pressure
1020.92 hPa
Previous

55 mins ago

EBLG 200450Z 18007KT 9000 NSC 04/02 Q1022 NOSIG
Observed
Feb-20 @ 04:50 UTC
Wind
  • 180° at 7 KTS
Visibility
8,996 meters
Flight Rules
VFR
Cloud Levels
  • Clear skies
Temperature
C / 39°F
Dewpoint
C / 36°F
Humidity
87%
Altimeter
30.18" Hg
Pressure
1021.92 hPa
Previous

1 hour ago

EBLG 200420Z 18008KT 9999 FEW040 04/02 Q1021 NOSIG
Observed
Feb-20 @ 04:20 UTC
Wind
  • 180° at 8 KTS
Visibility
10,000+ meters
Flight Rules
VFR
Cloud Levels
  • Few at 4,000' AGL
Temperature
C / 39°F
Dewpoint
C / 36°F
Humidity
87%
Altimeter
30.15" Hg
Pressure
1020.92 hPa